sensor_id;sensor_type;location;lat;lon;timestamp;P1;durP1;ratioP1;P2;durP2;ratioP2
27796;SDS011;15177;50.844;4.412;2023-12-07T00:01:43;77.13;;;26.50;;
27796;SDS011;15177;50.844;4.412;2023-12-07T00:04:11;78.60;;;26.33;;
27796;SDS011;15177;50.844;4.412;2023-12-07T00:06:37;68.23;;;26.57;;
27796;SDS011;15177;50.844;4.412;2023-12-07T00:09:05;77.77;;;26.73;;
27796;SDS011;15177;50.844;4.412;2023-12-07T00:11:30;70.67;;;26.57;;
27796;SDS011;15177;50.844;4.412;2023-12-07T00:13:56;85.03;;;28.07;;
27796;SDS011;15177;50.844;4.412;2023-12-07T00:16:24;68.83;;;26.87;;
27796;SDS011;15177;50.844;4.412;2023-12-07T00:18:50;79.50;;;28.07;;
27796;SDS011;15177;50.844;4.412;2023-12-07T00:21:18;81.73;;;28.80;;
27796;SDS011;15177;50.844;4.412;2023-12-07T00:23:43;78.93;;;28.73;;
27796;SDS011;15177;50.844;4.412;2023-12-07T00:26:11;79.10;;;28.90;;
27796;SDS011;15177;50.844;4.412;2023-12-07T00:28:37;75.13;;;28.37;;
27796;SDS011;15177;50.844;4.412;2023-12-07T00:31:05;71.73;;;27.50;;
27796;SDS011;15177;50.844;4.412;2023-12-07T00:33:34;74.83;;;27.17;;
27796;SDS011;15177;50.844;4.412;2023-12-07T00:36:02;79.93;;;29.10;;
27796;SDS011;15177;50.844;4.412;2023-12-07T00:38:31;73.37;;;27.47;;
27796;SDS011;15177;50.844;4.412;2023-12-07T00:40:59;80.00;;;27.77;;
27796;SDS011;15177;50.844;4.412;2023-12-07T00:43:27;68.03;;;26.17;;
27796;SDS011;15177;50.844;4.412;2023-12-07T00:45:52;84.83;;;29.10;;
27796;SDS011;15177;50.844;4.412;2023-12-07T00:48:18;71.10;;;25.40;;
27796;SDS011;15177;50.844;4.412;2023-12-07T00:50:46;66.70;;;24.90;;
27796;SDS011;15177;50.844;4.412;2023-12-07T00:53:16;60.73;;;23.63;;
27796;SDS011;15177;50.844;4.412;2023-12-07T00:55:42;66.83;;;24.53;;
27796;SDS011;15177;50.844;4.412;2023-12-07T00:58:08;64.97;;;26.63;;
27796;SDS011;15177;50.844;4.412;2023-12-07T01:00:38;64.67;;;24.70;;
27796;SDS011;15177;50.844;4.412;2023-12-07T01:03:04;60.07;;;24.40;;
27796;SDS011;15177;50.844;4.412;2023-12-07T01:05:32;63.30;;;25.27;;
27796;SDS011;15177;50.844;4.412;2023-12-07T01:08:00;60.17;;;23.47;;
27796;SDS011;15177;50.844;4.412;2023-12-07T01:10:30;58.80;;;23.13;;
27796;SDS011;15177;50.844;4.412;2023-12-07T01:12:58;61.73;;;22.33;;
27796;SDS011;15177;50.844;4.412;2023-12-07T01:15:23;59.70;;;23.37;;
27796;SDS011;15177;50.844;4.412;2023-12-07T01:17:49;59.27;;;23.73;;
27796;SDS011;15177;50.844;4.412;2023-12-07T01:20:19;56.40;;;23.53;;
27796;SDS011;15177;50.844;4.412;2023-12-07T01:22:45;55.97;;;23.30;;
27796;SDS011;15177;50.844;4.412;2023-12-07T01:25:13;56.83;;;24.23;;
27796;SDS011;15177;50.844;4.412;2023-12-07T01:27:47;53.30;;;24.13;;
27796;SDS011;15177;50.844;4.412;2023-12-07T01:30:15;54.70;;;23.73;;
27796;SDS011;15177;50.844;4.412;2023-12-07T01:32:43;60.53;;;25.37;;
27796;SDS011;15177;50.844;4.412;2023-12-07T01:35:11;58.37;;;24.10;;
27796;SDS011;15177;50.844;4.412;2023-12-07T01:37:37;60.80;;;24.73;;
27796;SDS011;15177;50.844;4.412;2023-12-07T01:40:05;55.97;;;22.67;;
27796;SDS011;15177;50.844;4.412;2023-12-07T01:42:35;53.63;;;22.67;;
27796;SDS011;15177;50.844;4.412;2023-12-07T01:45:01;59.20;;;24.07;;
27796;SDS011;15177;50.844;4.412;2023-12-07T01:47:32;53.47;;;22.83;;
27796;SDS011;15177;50.844;4.412;2023-12-07T01:50:02;51.30;;;21.57;;
27796;SDS011;15177;50.844;4.412;2023-12-07T01:52:35;52.60;;;22.83;;
27796;SDS011;15177;50.844;4.412;2023-12-07T01:55:05;48.87;;;21.67;;
27796;SDS011;15177;50.844;4.412;2023-12-07T01:57:36;51.03;;;21.63;;
27796;SDS011;15177;50.844;4.412;2023-12-07T02:00:03;53.27;;;22.63;;
27796;SDS011;15177;50.844;4.412;2023-12-07T02:02:29;54.13;;;23.50;;
27796;SDS011;15177;50.844;4.412;2023-12-07T02:04:56;44.53;;;21.60;;
27796;SDS011;15177;50.844;4.412;2023-12-07T02:07:22;48.20;;;22.77;;
27796;SDS011;15177;50.844;4.412;2023-12-07T02:09:48;45.37;;;22.57;;
27796;SDS011;15177;50.844;4.412;2023-12-07T02:12:14;44.03;;;21.43;;
27796;SDS011;15177;50.844;4.412;2023-12-07T02:14:40;47.43;;;22.57;;
27796;SDS011;15177;50.844;4.412;2023-12-07T02:20:20;41.63;;;20.90;;
27796;SDS011;15177;50.844;4.412;2023-12-07T02:22:48;45.73;;;21.07;;
27796;SDS011;15177;50.844;4.412;2023-12-07T02:25:18;48.10;;;20.70;;
27796;SDS011;15177;50.844;4.412;2023-12-07T02:27:46;46.27;;;19.17;;
27796;SDS011;15177;50.844;4.412;2023-12-07T02:30:11;47.37;;;21.57;;
27796;SDS011;15177;50.844;4.412;2023-12-07T02:32:38;41.80;;;19.90;;
27796;SDS011;15177;50.844;4.412;2023-12-07T02:35:05;41.80;;;20.80;;
27796;SDS011;15177;50.844;4.412;2023-12-07T02:37:34;41.80;;;18.33;;
27796;SDS011;15177;50.844;4.412;2023-12-07T02:40:08;45.80;;;20.50;;
27796;SDS011;15177;50.844;4.412;2023-12-07T02:42:35;41.03;;;19.50;;
27796;SDS011;15177;50.844;4.412;2023-12-07T02:45:05;44.37;;;20.13;;
27796;SDS011;15177;50.844;4.412;2023-12-07T02:47:33;39.03;;;18.27;;
27796;SDS011;15177;50.844;4.412;2023-12-07T02:50:02;46.30;;;19.93;;
27796;SDS011;15177;50.844;4.412;2023-12-07T02:52:30;44.23;;;19.67;;
27796;SDS011;15177;50.844;4.412;2023-12-07T02:54:56;34.43;;;17.83;;
27796;SDS011;15177;50.844;4.412;2023-12-07T02:57:22;36.63;;;18.50;;
27796;SDS011;15177;50.844;4.412;2023-12-07T02:59:50;40.00;;;19.17;;
27796;SDS011;15177;50.844;4.412;2023-12-07T03:02:19;38.53;;;19.00;;
27796;SDS011;15177;50.844;4.412;2023-12-07T03:04:44;38.87;;;18.73;;
27796;SDS011;15177;50.844;4.412;2023-12-07T03:07:12;36.63;;;19.10;;
27796;SDS011;15177;50.844;4.412;2023-12-07T03:09:42;38.70;;;18.50;;
27796;SDS011;15177;50.844;4.412;2023-12-07T03:12:08;40.33;;;19.33;;
27796;SDS011;15177;50.844;4.412;2023-12-07T03:14:34;36.73;;;18.60;;
27796;SDS011;15177;50.844;4.412;2023-12-07T03:16:59;42.13;;;18.53;;
27796;SDS011;15177;50.844;4.412;2023-12-07T03:19:27;41.70;;;19.07;;
27796;SDS011;15177;50.844;4.412;2023-12-07T03:21:53;44.33;;;18.97;;
27796;SDS011;15177;50.844;4.412;2023-12-07T03:24:19;42.17;;;18.17;;
27796;SDS011;15177;50.844;4.412;2023-12-07T03:26:45;43.13;;;17.70;;
27796;SDS011;15177;50.844;4.412;2023-12-07T03:29:11;37.27;;;17.20;;
27796;SDS011;15177;50.844;4.412;2023-12-07T03:31:39;31.90;;;17.10;;
27796;SDS011;15177;50.844;4.412;2023-12-07T03:34:04;37.07;;;17.77;;
27796;SDS011;15177;50.844;4.412;2023-12-07T03:36:30;33.50;;;18.17;;
27796;SDS011;15177;50.844;4.412;2023-12-07T03:39:01;41.77;;;19.27;;
27796;SDS011;15177;50.844;4.412;2023-12-07T03:41:29;39.47;;;20.13;;
27796;SDS011;15177;50.844;4.412;2023-12-07T03:43:55;45.23;;;19.40;;
27796;SDS011;15177;50.844;4.412;2023-12-07T03:46:23;37.40;;;18.97;;
27796;SDS011;15177;50.844;4.412;2023-12-07T03:48:49;45.83;;;20.30;;
27796;SDS011;15177;50.844;4.412;2023-12-07T03:51:17;39.90;;;20.23;;
27796;SDS011;15177;50.844;4.412;2023-12-07T03:53:42;39.57;;;20.10;;
27796;SDS011;15177;50.844;4.412;2023-12-07T03:56:08;46.80;;;20.30;;
27796;SDS011;15177;50.844;4.412;2023-12-07T03:58:34;36.90;;;18.83;;
27796;SDS011;15177;50.844;4.412;2023-12-07T04:00:59;43.27;;;19.93;;
27796;SDS011;15177;50.844;4.412;2023-12-07T04:03:28;36.50;;;19.10;;
27796;SDS011;15177;50.844;4.412;2023-12-07T04:05:54;40.03;;;20.03;;
27796;SDS011;15177;50.844;4.412;2023-12-07T04:08:20;48.27;;;18.77;;
27796;SDS011;15177;50.844;4.412;2023-12-07T04:10:48;42.93;;;19.60;;
27796;SDS011;15177;50.844;4.412;2023-12-07T04:13:13;40.03;;;18.00;;
27796;SDS011;15177;50.844;4.412;2023-12-07T04:15:39;42.43;;;19.30;;
27796;SDS011;15177;50.844;4.412;2023-12-07T04:18:07;38.00;;;17.97;;
27796;SDS011;15177;50.844;4.412;2023-12-07T04:20:32;38.77;;;19.53;;
27796;SDS011;15177;50.844;4.412;2023-12-07T04:23:00;47.37;;;19.83;;
27796;SDS011;15177;50.844;4.412;2023-12-07T04:25:28;33.07;;;17.73;;
27796;SDS011;15177;50.844;4.412;2023-12-07T04:27:54;39.80;;;17.40;;
27796;SDS011;15177;50.844;4.412;2023-12-07T04:30:19;29.90;;;17.23;;
27796;SDS011;15177;50.844;4.412;2023-12-07T04:32:45;29.67;;;16.03;;
27796;SDS011;15177;50.844;4.412;2023-12-07T04:35:11;34.53;;;15.67;;
27796;SDS011;15177;50.844;4.412;2023-12-07T04:37:36;28.37;;;16.13;;
27796;SDS011;15177;50.844;4.412;2023-12-07T04:40:05;30.93;;;15.10;;
27796;SDS011;15177;50.844;4.412;2023-12-07T04:42:31;32.57;;;16.73;;
27796;SDS011;15177;50.844;4.412;2023-12-07T04:44:59;30.63;;;16.13;;
27796;SDS011;15177;50.844;4.412;2023-12-07T04:47:27;27.03;;;15.73;;
27796;SDS011;15177;50.844;4.412;2023-12-07T04:49:55;31.33;;;16.80;;
27796;SDS011;15177;50.844;4.412;2023-12-07T04:52:21;34.90;;;16.80;;
27796;SDS011;15177;50.844;4.412;2023-12-07T04:54:51;34.57;;;17.67;;
27796;SDS011;15177;50.844;4.412;2023-12-07T04:57:17;31.53;;;16.73;;
27796;SDS011;15177;50.844;4.412;2023-12-07T04:59:43;29.93;;;17.17;;
27796;SDS011;15177;50.844;4.412;2023-12-07T05:02:14;28.83;;;16.70;;
27796;SDS011;15177;50.844;4.412;2023-12-07T05:04:43;34.83;;;17.13;;
27796;SDS011;15177;50.844;4.412;2023-12-07T05:07:13;33.00;;;17.00;;
27796;SDS011;15177;50.844;4.412;2023-12-07T05:09:39;31.43;;;17.03;;
27796;SDS011;15177;50.844;4.412;2023-12-07T05:12:08;28.77;;;15.23;;
27796;SDS011;15177;50.844;4.412;2023-12-07T05:14:34;33.63;;;15.27;;
27796;SDS011;15177;50.844;4.412;2023-12-07T05:17:02;30.83;;;16.07;;
27796;SDS011;15177;50.844;4.412;2023-12-07T05:19:28;28.67;;;15.30;;
27796;SDS011;15177;50.844;4.412;2023-12-07T05:21:54;29.50;;;14.20;;
27796;SDS011;15177;50.844;4.412;2023-12-07T05:24:19;29.47;;;16.50;;
27796;SDS011;15177;50.844;4.412;2023-12-07T05:26:45;28.90;;;15.93;;
27796;SDS011;15177;50.844;4.412;2023-12-07T05:29:11;29.20;;;15.33;;
27796;SDS011;15177;50.844;4.412;2023-12-07T05:31:38;29.03;;;15.47;;
27796;SDS011;15177;50.844;4.412;2023-12-07T05:34:04;31.07;;;16.57;;
27796;SDS011;15177;50.844;4.412;2023-12-07T05:36:30;27.57;;;15.13;;
27796;SDS011;15177;50.844;4.412;2023-12-07T05:39:00;29.40;;;15.60;;
27796;SDS011;15177;50.844;4.412;2023-12-07T05:41:28;28.20;;;15.17;;
27796;SDS011;15177;50.844;4.412;2023-12-07T05:43:54;27.57;;;15.30;;
27796;SDS011;15177;50.844;4.412;2023-12-07T05:46:19;31.33;;;15.87;;
27796;SDS011;15177;50.844;4.412;2023-12-07T05:48:45;29.60;;;15.90;;
27796;SDS011;15177;50.844;4.412;2023-12-07T05:51:16;29.83;;;15.70;;
27796;SDS011;15177;50.844;4.412;2023-12-07T05:53:42;26.13;;;15.70;;
27796;SDS011;15177;50.844;4.412;2023-12-07T05:56:11;28.07;;;15.30;;
27796;SDS011;15177;50.844;4.412;2023-12-07T05:58:37;27.40;;;15.23;;
27796;SDS011;15177;50.844;4.412;2023-12-07T06:01:02;30.97;;;16.10;;
27796;SDS011;15177;50.844;4.412;2023-12-07T06:03:28;26.37;;;15.47;;
27796;SDS011;15177;50.844;4.412;2023-12-07T06:05:54;29.23;;;15.33;;
27796;SDS011;15177;50.844;4.412;2023-12-07T06:08:23;32.67;;;15.63;;
27796;SDS011;15177;50.844;4.412;2023-12-07T06:10:51;33.67;;;16.17;;
27796;SDS011;15177;50.844;4.412;2023-12-07T06:13:19;33.20;;;15.87;;
27796;SDS011;15177;50.844;4.412;2023-12-07T06:15:45;38.00;;;16.77;;
27796;SDS011;15177;50.844;4.412;2023-12-07T06:18:10;33.27;;;15.77;;
27796;SDS011;15177;50.844;4.412;2023-12-07T06:20:36;32.53;;;16.80;;
27796;SDS011;15177;50.844;4.412;2023-12-07T06:23:02;34.63;;;16.17;;
27796;SDS011;15177;50.844;4.412;2023-12-07T06:25:27;33.97;;;14.63;;
27796;SDS011;15177;50.844;4.412;2023-12-07T06:27:53;36.03;;;15.57;;
27796;SDS011;15177;50.844;4.412;2023-12-07T06:30:19;30.03;;;16.03;;
27796;SDS011;15177;50.844;4.412;2023-12-07T06:32:44;29.43;;;15.50;;
27796;SDS011;15177;50.844;4.412;2023-12-07T06:35:12;37.23;;;17.00;;
27796;SDS011;15177;50.844;4.412;2023-12-07T06:37:38;30.30;;;16.20;;
27796;SDS011;15177;50.844;4.412;2023-12-07T06:40:06;30.00;;;15.53;;
27796;SDS011;15177;50.844;4.412;2023-12-07T06:42:34;32.03;;;16.37;;
27796;SDS011;15177;50.844;4.412;2023-12-07T06:45:00;33.83;;;15.60;;
27796;SDS011;15177;50.844;4.412;2023-12-07T06:47:31;29.77;;;14.67;;
27796;SDS011;15177;50.844;4.412;2023-12-07T06:49:59;28.53;;;15.37;;
27796;SDS011;15177;50.844;4.412;2023-12-07T06:52:27;25.40;;;14.80;;
27796;SDS011;15177;50.844;4.412;2023-12-07T06:54:53;29.40;;;14.10;;
27796;SDS011;15177;50.844;4.412;2023-12-07T06:57:18;29.93;;;14.80;;
27796;SDS011;15177;50.844;4.412;2023-12-07T06:59:45;26.73;;;13.60;;
27796;SDS011;15177;50.844;4.412;2023-12-07T07:02:11;31.60;;;16.00;;
27796;SDS011;15177;50.844;4.412;2023-12-07T07:04:37;34.07;;;15.07;;
27796;SDS011;15177;50.844;4.412;2023-12-07T07:07:05;26.10;;;13.93;;
27796;SDS011;15177;50.844;4.412;2023-12-07T07:09:34;30.20;;;15.00;;
27796;SDS011;15177;50.844;4.412;2023-12-07T07:12:02;23.23;;;13.87;;
27796;SDS011;15177;50.844;4.412;2023-12-07T07:14:27;24.33;;;13.53;;
27796;SDS011;15177;50.844;4.412;2023-12-07T07:16:53;29.67;;;15.07;;
27796;SDS011;15177;50.844;4.412;2023-12-07T07:19:19;34.27;;;15.90;;
27796;SDS011;15177;50.844;4.412;2023-12-07T07:21:47;26.07;;;13.93;;
27796;SDS011;15177;50.844;4.412;2023-12-07T07:24:14;29.00;;;14.93;;
27796;SDS011;15177;50.844;4.412;2023-12-07T07:26:41;29.23;;;14.43;;
27796;SDS011;15177;50.844;4.412;2023-12-07T07:29:07;29.97;;;14.40;;
27796;SDS011;15177;50.844;4.412;2023-12-07T07:31:33;31.03;;;15.90;;
27796;SDS011;15177;50.844;4.412;2023-12-07T07:33:59;30.13;;;15.07;;
27796;SDS011;15177;50.844;4.412;2023-12-07T07:36:25;28.50;;;14.17;;
27796;SDS011;15177;50.844;4.412;2023-12-07T07:39:00;27.50;;;14.33;;
27796;SDS011;15177;50.844;4.412;2023-12-07T07:41:45;21.27;;;12.57;;
27796;SDS011;15177;50.844;4.412;2023-12-07T07:44:10;29.17;;;15.73;;
27796;SDS011;15177;50.844;4.412;2023-12-07T07:46:36;30.50;;;14.20;;
27796;SDS011;15177;50.844;4.412;2023-12-07T07:49:14;32.37;;;14.93;;
27796;SDS011;15177;50.844;4.412;2023-12-07T07:51:40;28.63;;;14.43;;
27796;SDS011;15177;50.844;4.412;2023-12-07T07:54:06;26.00;;;14.60;;
27796;SDS011;15177;50.844;4.412;2023-12-07T07:56:33;22.77;;;13.60;;
27796;SDS011;15177;50.844;4.412;2023-12-07T07:58:59;29.93;;;15.40;;
27796;SDS011;15177;50.844;4.412;2023-12-07T08:01:25;25.67;;;13.97;;
27796;SDS011;15177;50.844;4.412;2023-12-07T08:03:51;27.73;;;13.43;;
27796;SDS011;15177;50.844;4.412;2023-12-07T08:06:20;27.17;;;13.97;;
27796;SDS011;15177;50.844;4.412;2023-12-07T08:08:47;31.90;;;15.97;;
27796;SDS011;15177;50.844;4.412;2023-12-07T08:11:15;26.00;;;14.37;;
27796;SDS011;15177;50.844;4.412;2023-12-07T08:13:45;26.23;;;13.50;;
27796;SDS011;15177;50.844;4.412;2023-12-07T08:16:10;28.77;;;14.37;;
27796;SDS011;15177;50.844;4.412;2023-12-07T08:18:36;28.50;;;14.17;;
27796;SDS011;15177;50.844;4.412;2023-12-07T08:21:02;30.73;;;14.53;;
27796;SDS011;15177;50.844;4.412;2023-12-07T08:23:29;30.07;;;14.40;;
27796;SDS011;15177;50.844;4.412;2023-12-07T08:25:55;24.97;;;12.77;;
27796;SDS011;15177;50.844;4.412;2023-12-07T08:28:22;28.83;;;13.37;;
27796;SDS011;15177;50.844;4.412;2023-12-07T08:31:02;26.70;;;13.47;;
27796;SDS011;15177;50.844;4.412;2023-12-07T08:33:28;24.20;;;13.00;;
27796;SDS011;15177;50.844;4.412;2023-12-07T08:35:55;27.27;;;12.63;;
27796;SDS011;15177;50.844;4.412;2023-12-07T08:38:22;23.03;;;13.30;;
27796;SDS011;15177;50.844;4.412;2023-12-07T08:40:53;24.37;;;12.57;;
27796;SDS011;15177;50.844;4.412;2023-12-07T08:43:20;22.03;;;12.37;;
27796;SDS011;15177;50.844;4.412;2023-12-07T08:45:50;27.47;;;12.07;;
27796;SDS011;15177;50.844;4.412;2023-12-07T08:48:17;31.03;;;14.03;;
27796;SDS011;15177;50.844;4.412;2023-12-07T08:50:44;26.97;;;13.47;;
27796;SDS011;15177;50.844;4.412;2023-12-07T08:53:10;24.07;;;13.40;;
27796;SDS011;15177;50.844;4.412;2023-12-07T08:55:36;26.50;;;13.17;;
27796;SDS011;15177;50.844;4.412;2023-12-07T08:58:05;23.40;;;12.13;;
27796;SDS011;15177;50.844;4.412;2023-12-07T09:00:38;26.73;;;12.13;;
27796;SDS011;15177;50.844;4.412;2023-12-07T09:03:04;28.83;;;12.70;;
27796;SDS011;15177;50.844;4.412;2023-12-07T09:05:32;23.60;;;12.43;;
27796;SDS011;15177;50.844;4.412;2023-12-07T09:07:59;30.53;;;12.63;;
27796;SDS011;15177;50.844;4.412;2023-12-07T09:10:25;21.33;;;13.70;;
27796;SDS011;15177;50.844;4.412;2023-12-07T09:12:51;23.03;;;11.93;;
27796;SDS011;15177;50.844;4.412;2023-12-07T09:15:18;20.13;;;11.73;;
27796;SDS011;15177;50.844;4.412;2023-12-07T09:17:45;24.83;;;13.37;;
27796;SDS011;15177;50.844;4.412;2023-12-07T09:20:11;21.90;;;11.60;;
27796;SDS011;15177;50.844;4.412;2023-12-07T09:22:40;20.60;;;11.20;;
27796;SDS011;15177;50.844;4.412;2023-12-07T09:25:09;24.07;;;11.60;;
27796;SDS011;15177;50.844;4.412;2023-12-07T09:27:36;22.13;;;11.67;;
27796;SDS011;15177;50.844;4.412;2023-12-07T09:30:06;22.13;;;11.10;;
27796;SDS011;15177;50.844;4.412;2023-12-07T09:32:44;19.63;;;10.20;;
27796;SDS011;15177;50.844;4.412;2023-12-07T09:35:15;22.17;;;11.57;;
27796;SDS011;15177;50.844;4.412;2023-12-07T09:37:44;22.03;;;11.17;;
27796;SDS011;15177;50.844;4.412;2023-12-07T09:40:16;22.10;;;10.73;;
27796;SDS011;15177;50.844;4.412;2023-12-07T09:42:47;21.73;;;10.80;;
27796;SDS011;15177;50.844;4.412;2023-12-07T09:45:13;21.43;;;10.77;;
27796;SDS011;15177;50.844;4.412;2023-12-07T09:47:41;24.57;;;10.87;;
27796;SDS011;15177;50.844;4.412;2023-12-07T09:50:10;21.10;;;11.03;;
27796;SDS011;15177;50.844;4.412;2023-12-07T09:52:38;20.97;;;10.53;;
27796;SDS011;15177;50.844;4.412;2023-12-07T09:55:05;24.40;;;10.73;;
27796;SDS011;15177;50.844;4.412;2023-12-07T09:57:34;23.03;;;10.50;;
27796;SDS011;15177;50.844;4.412;2023-12-07T10:00:01;16.73;;;9.37;;
27796;SDS011;15177;50.844;4.412;2023-12-07T10:02:32;17.87;;;8.93;;
27796;SDS011;15177;50.844;4.412;2023-12-07T10:05:09;17.20;;;10.47;;
27796;SDS011;15177;50.844;4.412;2023-12-07T10:07:41;18.83;;;9.23;;
27796;SDS011;15177;50.844;4.412;2023-12-07T10:10:08;16.57;;;8.67;;
27796;SDS011;15177;50.844;4.412;2023-12-07T10:12:45;20.03;;;9.27;;
27796;SDS011;15177;50.844;4.412;2023-12-07T10:15:12;17.27;;;9.00;;
27796;SDS011;15177;50.844;4.412;2023-12-07T10:20:16;18.03;;;8.10;;
27796;SDS011;15177;50.844;4.412;2023-12-07T10:25:37;16.57;;;9.33;;
27796;SDS011;15177;50.844;4.412;2023-12-07T10:28:03;20.83;;;9.57;;
27796;SDS011;15177;50.844;4.412;2023-12-07T10:30:31;18.60;;;9.30;;
27796;SDS011;15177;50.844;4.412;2023-12-07T10:32:57;14.93;;;8.00;;
27796;SDS011;15177;50.844;4.412;2023-12-07T10:35:23;14.03;;;8.30;;
27796;SDS011;15177;50.844;4.412;2023-12-07T10:37:50;15.10;;;8.83;;
27796;SDS011;15177;50.844;4.412;2023-12-07T10:40:19;16.80;;;9.03;;
27796;SDS011;15177;50.844;4.412;2023-12-07T10:42:47;14.00;;;8.37;;
27796;SDS011;15177;50.844;4.412;2023-12-07T10:45:14;22.60;;;9.63;;
27796;SDS011;15177;50.844;4.412;2023-12-07T10:47:45;14.77;;;8.27;;
27796;SDS011;15177;50.844;4.412;2023-12-07T10:50:12;16.63;;;8.80;;
27796;SDS011;15177;50.844;4.412;2023-12-07T10:52:48;20.37;;;8.67;;
27796;SDS011;15177;50.844;4.412;2023-12-07T10:55:20;17.97;;;8.37;;
27796;SDS011;15177;50.844;4.412;2023-12-07T10:57:56;15.20;;;8.63;;
27796;SDS011;15177;50.844;4.412;2023-12-07T11:00:27;15.57;;;8.93;;
27796;SDS011;15177;50.844;4.412;2023-12-07T11:02:54;19.73;;;9.57;;
27796;SDS011;15177;50.844;4.412;2023-12-07T11:05:20;14.47;;;8.90;;
27796;SDS011;15177;50.844;4.412;2023-12-07T11:07:59;13.37;;;8.00;;
27796;SDS011;15177;50.844;4.412;2023-12-07T11:13:20;17.67;;;8.73;;
27796;SDS011;15177;50.844;4.412;2023-12-07T11:15:49;15.90;;;8.30;;
27796;SDS011;15177;50.844;4.412;2023-12-07T11:18:15;18.57;;;8.60;;
27796;SDS011;15177;50.844;4.412;2023-12-07T11:23:16;20.53;;;8.17;;
27796;SDS011;15177;50.844;4.412;2023-12-07T11:25:44;14.13;;;7.63;;
27796;SDS011;15177;50.844;4.412;2023-12-07T11:28:10;13.10;;;7.83;;
27796;SDS011;15177;50.844;4.412;2023-12-07T11:30:37;15.17;;;8.20;;
27796;SDS011;15177;50.844;4.412;2023-12-07T11:33:05;10.43;;;6.53;;
27796;SDS011;15177;50.844;4.412;2023-12-07T11:38:34;12.77;;;8.00;;
27796;SDS011;15177;50.844;4.412;2023-12-07T11:41:21;15.97;;;7.50;;
27796;SDS011;15177;50.844;4.412;2023-12-07T11:43:46;15.07;;;6.57;;
27796;SDS011;15177;50.844;4.412;2023-12-07T11:46:14;14.90;;;7.70;;
27796;SDS011;15177;50.844;4.412;2023-12-07T11:48:45;13.50;;;6.03;;
27796;SDS011;15177;50.844;4.412;2023-12-07T11:51:12;9.50;;;6.30;;
27796;SDS011;15177;50.844;4.412;2023-12-07T11:53:38;14.20;;;6.53;;
27796;SDS011;15177;50.844;4.412;2023-12-07T11:56:09;13.10;;;6.60;;
27796;SDS011;15177;50.844;4.412;2023-12-07T11:58:37;9.57;;;6.27;;
27796;SDS011;15177;50.844;4.412;2023-12-07T12:01:03;15.43;;;6.47;;
27796;SDS011;15177;50.844;4.412;2023-12-07T12:03:30;13.77;;;6.33;;
27796;SDS011;15177;50.844;4.412;2023-12-07T12:05:59;8.17;;;5.67;;
27796;SDS011;15177;50.844;4.412;2023-12-07T12:08:27;13.50;;;6.90;;
27796;SDS011;15177;50.844;4.412;2023-12-07T12:10:53;13.60;;;7.90;;
27796;SDS011;15177;50.844;4.412;2023-12-07T12:13:29;13.03;;;5.83;;
27796;SDS011;15177;50.844;4.412;2023-12-07T12:15:58;14.03;;;5.87;;
27796;SDS011;15177;50.844;4.412;2023-12-07T12:18:25;14.80;;;6.40;;
27796;SDS011;15177;50.844;4.412;2023-12-07T12:20:52;12.03;;;5.90;;
27796;SDS011;15177;50.844;4.412;2023-12-07T12:23:22;13.53;;;6.33;;
27796;SDS011;15177;50.844;4.412;2023-12-07T12:25:48;13.10;;;6.23;;
27796;SDS011;15177;50.844;4.412;2023-12-07T12:28:15;15.40;;;8.17;;
27796;SDS011;15177;50.844;4.412;2023-12-07T12:30:43;14.07;;;5.90;;
27796;SDS011;15177;50.844;4.412;2023-12-07T12:33:09;12.53;;;5.97;;
27796;SDS011;15177;50.844;4.412;2023-12-07T12:35:38;11.07;;;5.23;;
27796;SDS011;15177;50.844;4.412;2023-12-07T12:38:12;10.47;;;5.93;;
27796;SDS011;15177;50.844;4.412;2023-12-07T12:40:38;10.70;;;5.70;;
27796;SDS011;15177;50.844;4.412;2023-12-07T12:43:06;10.03;;;5.63;;
27796;SDS011;15177;50.844;4.412;2023-12-07T12:45:32;9.03;;;5.73;;
27796;SDS011;15177;50.844;4.412;2023-12-07T12:47:58;12.87;;;5.77;;
27796;SDS011;15177;50.844;4.412;2023-12-07T12:50:37;10.83;;;5.90;;
27796;SDS011;15177;50.844;4.412;2023-12-07T12:53:05;8.87;;;5.10;;
27796;SDS011;15177;50.844;4.412;2023-12-07T12:55:38;12.30;;;6.00;;
27796;SDS011;15177;50.844;4.412;2023-12-07T12:58:12;12.90;;;5.67;;
27796;SDS011;15177;50.844;4.412;2023-12-07T13:00:48;8.43;;;5.10;;
27796;SDS011;15177;50.844;4.412;2023-12-07T13:03:14;13.20;;;5.37;;
27796;SDS011;15177;50.844;4.412;2023-12-07T13:05:39;12.20;;;4.97;;
27796;SDS011;15177;50.844;4.412;2023-12-07T13:08:08;8.93;;;5.20;;
27796;SDS011;15177;50.844;4.412;2023-12-07T13:10:35;10.73;;;5.00;;
27796;SDS011;15177;50.844;4.412;2023-12-07T13:13:01;9.10;;;4.77;;
27796;SDS011;15177;50.844;4.412;2023-12-07T13:15:32;37.87;;;8.03;;
27796;SDS011;15177;50.844;4.412;2023-12-07T13:17:57;8.93;;;5.37;;
27796;SDS011;15177;50.844;4.412;2023-12-07T13:20:25;8.87;;;4.93;;
27796;SDS011;15177;50.844;4.412;2023-12-07T13:22:51;14.43;;;5.43;;
27796;SDS011;15177;50.844;4.412;2023-12-07T13:25:17;8.90;;;5.13;;
27796;SDS011;15177;50.844;4.412;2023-12-07T13:27:45;9.43;;;4.70;;
27796;SDS011;15177;50.844;4.412;2023-12-07T13:30:16;12.93;;;4.63;;
27796;SDS011;15177;50.844;4.412;2023-12-07T13:32:44;9.20;;;5.27;;
27796;SDS011;15177;50.844;4.412;2023-12-07T13:35:09;9.77;;;4.93;;
27796;SDS011;15177;50.844;4.412;2023-12-07T13:37:35;9.70;;;5.17;;
27796;SDS011;15177;50.844;4.412;2023-12-07T13:40:02;11.77;;;5.53;;
27796;SDS011;15177;50.844;4.412;2023-12-07T13:42:35;7.53;;;4.93;;
27796;SDS011;15177;50.844;4.412;2023-12-07T13:45:06;8.77;;;4.87;;
27796;SDS011;15177;50.844;4.412;2023-12-07T13:47:34;9.47;;;4.80;;
27796;SDS011;15177;50.844;4.412;2023-12-07T13:50:02;8.87;;;4.97;;
27796;SDS011;15177;50.844;4.412;2023-12-07T13:52:29;10.03;;;5.60;;
27796;SDS011;15177;50.844;4.412;2023-12-07T13:55:00;11.07;;;5.33;;
27796;SDS011;15177;50.844;4.412;2023-12-07T13:57:27;7.53;;;4.47;;
27796;SDS011;15177;50.844;4.412;2023-12-07T13:59:53;12.43;;;4.43;;
27796;SDS011;15177;50.844;4.412;2023-12-07T14:02:22;10.23;;;5.10;;
27796;SDS011;15177;50.844;4.412;2023-12-07T14:04:49;9.20;;;4.93;;
27796;SDS011;15177;50.844;4.412;2023-12-07T14:07:16;12.57;;;5.27;;
27796;SDS011;15177;50.844;4.412;2023-12-07T14:09:44;12.87;;;5.37;;
27796;SDS011;15177;50.844;4.412;2023-12-07T14:12:11;11.40;;;5.23;;
27796;SDS011;15177;50.844;4.412;2023-12-07T14:14:47;11.23;;;5.57;;
27796;SDS011;15177;50.844;4.412;2023-12-07T14:17:13;9.27;;;5.30;;
27796;SDS011;15177;50.844;4.412;2023-12-07T14:19:40;9.30;;;5.50;;
27796;SDS011;15177;50.844;4.412;2023-12-07T14:22:07;11.93;;;6.00;;
27796;SDS011;15177;50.844;4.412;2023-12-07T14:24:38;10.00;;;5.43;;
27796;SDS011;15177;50.844;4.412;2023-12-07T14:27:04;7.93;;;4.93;;
27796;SDS011;15177;50.844;4.412;2023-12-07T14:29:31;14.87;;;6.30;;
27796;SDS011;15177;50.844;4.412;2023-12-07T14:31:59;11.90;;;5.90;;
27796;SDS011;15177;50.844;4.412;2023-12-07T14:34:25;8.63;;;5.13;;
27796;SDS011;15177;50.844;4.412;2023-12-07T14:36:55;14.50;;;6.17;;
27796;SDS011;15177;50.844;4.412;2023-12-07T14:39:20;12.27;;;6.03;;
27796;SDS011;15177;50.844;4.412;2023-12-07T14:41:47;13.67;;;5.67;;
27796;SDS011;15177;50.844;4.412;2023-12-07T14:44:14;11.43;;;5.87;;
27796;SDS011;15177;50.844;4.412;2023-12-07T14:46:43;18.43;;;5.90;;